Time;durP1;ratioP1;P1;durP2;ratioP2;P2;SDS_P1;SDS_P2;PMS_P1;PMS_P2;Temp;Humidity;BMP_temperature;BMP_pressure;BME280_temperature;BME280_humidity;BME280_pressure;Samples;Min_cycle;Max_cycle;Signal;HPM_P1;HPM_P2
2021/03/29 00:00:18;;;;;;;2.60;0.88;;;14.50;99.90;;;;;;5077046;28;20028;-87
2021/03/29 00:02:45;;;;;;;3.33;0.98;;;14.50;99.90;;;;;;5077034;28;20024;-87
2021/03/29 00:05:12;;;;;;;2.42;0.80;;;14.50;99.90;;;;;;5060557;28;20032;-86
2021/03/29 00:07:39;;;;;;;3.33;0.90;;;14.50;99.90;;;;;;5060569;28;20032;-86
2021/03/29 00:10:08;;;;;;;3.75;1.02;;;14.50;99.90;;;;;;5060530;28;20028;-85
2021/03/29 00:12:40;;;;;;;4.38;0.98;;;14.50;99.90;;;;;;5077315;28;20512;-85
2021/03/29 00:15:08;;;;;;;2.88;1.10;;;14.50;99.90;;;;;;5077086;28;20142;-86
2021/03/29 00:17:35;;;;;;;3.67;1.30;;;14.50;99.90;;;;;;5043889;28;20024;-85
2021/03/29 00:20:13;;;;;;;6.03;1.20;;;14.50;99.90;;;;;;5061235;28;20441;-85
2021/03/29 00:22:40;;;;;;;4.88;1.00;;;14.50;99.90;;;;;;5077146;28;20032;-85
2021/03/29 00:25:10;;;;;;;5.15;1.25;;;14.50;99.90;;;;;;5076954;28;20059;-84
2021/03/29 00:27:36;;;;;;;5.57;1.30;;;14.50;99.90;;;;;;5076887;28;20028;-86
2021/03/29 00:30:08;;;;;;;2.65;1.10;;;14.50;99.90;;;;;;5043197;28;20055;-84
2021/03/29 00:32:35;;;;;;;4.40;1.10;;;14.50;99.90;;;;;;5076626;28;20032;-86
2021/03/29 00:35:01;;;;;;;4.15;1.45;;;14.50;99.90;;;;;;5060251;28;20028;-85
2021/03/29 00:37:28;;;;;;;4.25;1.05;;;14.50;99.90;;;;;;5043408;28;20369;-84
2021/03/29 00:39:53;;;;;;;7.50;1.20;;;14.50;99.90;;;;;;5060022;28;20035;-84
2021/03/29 00:42:20;;;;;;;2.33;0.88;;;14.50;99.90;;;;;;5094717;28;20029;-86
2021/03/29 00:44:46;;;;;;;2.15;1.02;;;14.50;99.90;;;;;;5060245;28;20039;-85
2021/03/29 00:47:13;;;;;;;5.82;0.88;;;14.50;99.90;;;;;;5077032;28;20032;-86
2021/03/29 00:49:40;;;;;;;5.35;1.30;;;14.50;99.90;;;;;;5095026;28;20047;-85
2021/03/29 00:52:06;;;;;;;6.22;0.90;;;14.50;99.90;;;;;;5043490;28;20031;-85
2021/03/29 00:54:34;;;;;;;4.82;1.33;;;14.50;99.90;;;;;;5076742;28;20077;-85
2021/03/29 00:57:01;;;;;;;2.38;0.85;;;14.50;99.90;;;;;;5094381;28;20485;-87
2021/03/29 00:59:28;;;;;;;5.25;1.13;;;14.50;99.90;;;;;;5076416;28;20028;-85
2021/03/29 01:01:54;;;;;;;3.38;0.90;;;14.50;99.90;;;;;;5060105;28;20032;-85
2021/03/29 01:04:20;;;;;;;5.95;1.17;;;14.50;99.90;;;;;;5060324;28;20471;-83
2021/03/29 01:06:49;;;;;;;5.72;1.05;;;14.50;99.90;;;;;;5059947;28;20031;-84
2021/03/29 01:09:19;;;;;;;4.18;1.20;;;14.50;99.90;;;;;;5093756;28;20024;-85
2021/03/29 01:12:00;;;;;;;3.63;1.20;;;14.50;99.90;;;;;;5091595;28;20028;-84
2021/03/29 01:14:38;;;;;;;3.33;1.02;;;14.50;99.90;;;;;;5091428;28;20024;-86
2021/03/29 01:17:20;;;;;;;3.10;1.08;;;14.50;99.90;;;;;;5073081;28;20485;-87
2021/03/29 01:19:46;;;;;;;6.47;1.30;;;14.50;99.90;;;;;;5073655;28;20119;-84
2021/03/29 01:22:17;;;;;;;3.42;1.10;;;14.50;99.90;;;;;;5091281;28;20099;-85
2021/03/29 01:24:45;;;;;;;3.08;1.00;;;14.50;99.90;;;;;;5091668;28;20021;-85
2021/03/29 01:27:17;;;;;;;5.13;1.50;;;14.50;99.90;;;;;;5073023;28;20112;-84
2021/03/29 01:29:44;;;;;;;3.22;1.50;;;14.50;99.90;;;;;;5073042;28;20032;-85
2021/03/29 01:32:12;;;;;;;7.78;1.17;;;14.50;99.90;;;;;;5056162;28;20028;-88
2021/03/29 01:34:40;;;;;;;6.28;1.38;;;14.50;99.90;;;;;;5090938;28;20031;-86
2021/03/29 01:37:08;;;;;;;4.30;1.40;;;14.50;99.90;;;;;;5056739;28;20024;-84
2021/03/29 01:39:35;;;;;;;6.18;1.60;;;14.50;99.90;;;;;;5091003;28;20036;-85
2021/03/29 01:42:02;;;;;;;11.80;2.42;;;14.50;99.90;;;;;;5091533;28;20034;-87
2021/03/29 01:44:29;;;;;;;6.32;1.70;;;14.50;99.90;;;;;;5090584;28;20629;-85
2021/03/29 01:46:56;;;;;;;8.55;2.45;;;14.50;99.90;;;;;;5090731;28;20502;-85
2021/03/29 01:49:22;;;;;;;8.38;1.58;;;14.50;99.90;;;;;;5090641;28;20044;-84
2021/03/29 01:51:49;;;;;;;5.40;2.10;;;14.50;99.90;;;;;;5072407;28;20425;-86
2021/03/29 01:54:16;;;;;;;7.55;1.88;;;14.50;99.90;;;;;;5072186;28;20496;-86
2021/03/29 01:56:42;;;;;;;5.13;1.55;;;14.50;99.90;;;;;;5055904;28;20028;-84
2021/03/29 01:59:08;;;;;;;6.63;1.48;;;14.50;99.90;;;;;;5090138;28;20024;-87
2021/03/29 02:01:34;;;;;;;12.80;1.50;;;14.50;99.90;;;;;;5072297;28;20487;-84
2021/03/29 02:04:00;;;;;;;7.85;1.77;;;14.50;99.90;;;;;;5072143;28;20054;-85
2021/03/29 02:06:27;;;;;;;10.07;2.10;;;14.50;99.90;;;;;;5090347;28;20752;-85
2021/03/29 02:08:55;;;;;;;9.52;2.03;;;14.50;99.90;;;;;;5055867;28;20498;-85
2021/03/29 02:11:22;;;;;;;8.10;2.10;;;14.50;99.90;;;;;;5055817;28;20070;-87
2021/03/29 02:13:51;;;;;;;7.05;1.83;;;14.40;99.90;;;;;;5072094;28;20026;-85
2021/03/29 02:16:18;;;;;;;7.20;1.73;;;14.40;99.90;;;;;;5090021;28;20043;-84
2021/03/29 02:18:46;;;;;;;9.10;2.20;;;14.40;99.90;;;;;;5055621;28;20079;-87
2021/03/29 02:21:19;;;;;;;9.02;1.73;;;14.40;99.90;;;;;;5071324;28;20582;-85
2021/03/29 02:23:57;;;;;;;9.88;1.95;;;14.40;99.90;;;;;;5090076;28;20075;-86
2021/03/29 02:26:28;;;;;;;13.52;3.08;;;14.40;99.90;;;;;;5071913;28;20027;-83
2021/03/29 02:28:56;;;;;;;9.20;2.10;;;14.40;99.90;;;;;;5072524;28;20024;-85
2021/03/29 02:31:26;;;;;;;8.55;1.75;;;14.40;99.90;;;;;;5089682;28;20024;-86
2021/03/29 02:33:53;;;;;;;8.23;2.00;;;14.40;99.90;;;;;;5071723;28;20024;-88
2021/03/29 02:36:21;;;;;;;14.25;2.92;;;14.40;99.90;;;;;;5071595;28;20028;-86
2021/03/29 02:38:48;;;;;;;13.70;2.55;;;14.40;99.90;;;;;;5089769;28;20094;-87
2021/03/29 02:41:15;;;;;;;18.90;3.47;;;14.40;99.90;;;;;;5089632;28;20028;-85
2021/03/29 02:43:44;;;;;;;11.35;2.38;;;14.40;99.90;;;;;;5071468;28;20054;-87
2021/03/29 02:46:10;;;;;;;9.60;2.20;;;14.40;99.90;;;;;;5071243;28;20028;-86
2021/03/29 02:48:39;;;;;;;14.85;2.50;;;14.40;99.90;;;;;;5054740;28;20028;-84
2021/03/29 02:51:08;;;;;;;14.27;3.33;;;14.40;99.90;;;;;;5089241;28;20040;-85
2021/03/29 02:53:36;;;;;;;13.60;2.70;;;14.40;99.90;;;;;;5089250;28;20326;-84
2021/03/29 02:56:07;;;;;;;14.95;3.05;;;14.40;99.90;;;;;;5054377;28;20051;-85
2021/03/29 02:58:37;;;;;;;7.10;2.05;;;14.40;99.90;;;;;;5089181;28;20540;-84
2021/03/29 03:01:03;;;;;;;18.30;4.00;;;14.40;99.90;;;;;;5089417;28;20036;-86
2021/03/29 03:03:29;;;;;;;14.27;2.85;;;14.40;99.90;;;;;;5070997;28;20020;-85
2021/03/29 03:05:56;;;;;;;12.18;2.63;;;14.40;99.90;;;;;;5054298;28;20407;-88
2021/03/29 03:08:23;;;;;;;11.15;2.55;;;14.40;99.90;;;;;;5054494;28;20707;-84
2021/03/29 03:10:49;;;;;;;15.82;3.05;;;14.40;99.90;;;;;;5071149;28;20028;-84
2021/03/29 03:13:16;;;;;;;12.98;2.67;;;14.40;99.90;;;;;;5089215;28;20028;-87
2021/03/29 03:15:41;;;;;;;13.00;3.22;;;14.40;99.90;;;;;;5089077;28;20024;-84
2021/03/29 03:18:10;;;;;;;15.50;2.70;;;14.40;99.90;;;;;;5071009;28;20032;-83
2021/03/29 03:20:38;;;;;;;19.85;3.00;;;14.40;99.90;;;;;;5070727;28;20067;-84
2021/03/29 03:23:08;;;;;;;15.15;3.00;;;14.30;99.90;;;;;;5070644;28;20020;-87
2021/03/29 03:25:36;;;;;;;19.00;3.75;;;14.40;99.90;;;;;;5088952;28;20027;-84
2021/03/29 03:28:05;;;;;;;14.90;3.13;;;14.40;99.90;;;;;;5070715;28;20367;-88
2021/03/29 03:30:37;;;;;;;20.27;3.60;;;14.40;99.90;;;;;;5070710;28;20432;-86
2021/03/29 03:33:05;;;;;;;14.07;3.08;;;14.30;99.90;;;;;;5087699;28;20025;-84
2021/03/29 03:35:33;;;;;;;15.68;2.97;;;14.30;99.90;;;;;;5088575;28;20058;-85
2021/03/29 03:38:18;;;;;;;12.45;2.78;;;14.30;99.90;;;;;;5070623;28;20062;-83
2021/03/29 03:40:47;;;;;;;9.38;3.00;;;14.30;99.90;;;;;;5088446;28;20020;-88
2021/03/29 03:43:17;;;;;;;12.03;3.07;;;14.30;99.90;;;;;;5088745;28;20024;-86
2021/03/29 03:45:53;;;;;;;15.40;2.90;;;14.30;99.90;;;;;;5088389;28;20057;-86
2021/03/29 03:48:20;;;;;;;20.20;4.03;;;14.30;99.90;;;;;;5070453;28;20129;-87
2021/03/29 03:50:49;;;;;;;8.63;2.20;;;14.30;99.90;;;;;;5070314;28;20056;-82
2021/03/29 03:53:16;;;;;;;13.77;2.50;;;14.30;99.90;;;;;;5088385;28;20051;-85
2021/03/29 03:55:42;;;;;;;9.77;2.90;;;14.30;99.90;;;;;;5070296;28;20030;-86
2021/03/29 03:58:11;;;;;;;13.23;2.38;;;14.30;99.90;;;;;;5037087;28;20027;-86
2021/03/29 04:00:37;;;;;;;11.00;2.53;;;14.30;99.90;;;;;;5053722;28;20031;-86
2021/03/29 04:03:03;;;;;;;10.98;2.13;;;14.30;99.90;;;;;;5037369;28;20382;-84
2021/03/29 04:05:29;;;;;;;12.43;2.58;;;14.30;99.90;;;;;;5070524;28;20024;-85
2021/03/29 04:07:57;;;;;;;14.10;2.65;;;14.30;99.90;;;;;;5088321;28;20107;-86
2021/03/29 04:10:25;;;;;;;16.00;3.72;;;14.30;99.90;;;;;;5037142;28;20078;-88
2021/03/29 04:12:53;;;;;;;7.32;2.10;;;14.30;99.90;;;;;;5037780;28;20044;-86
2021/03/29 04:15:19;;;;;;;8.18;1.63;;;14.30;99.90;;;;;;5070168;28;20482;-84
2021/03/29 04:17:44;;;;;;;13.07;2.03;;;14.30;99.90;;;;;;5069856;28;20024;-85
2021/03/29 04:20:11;;;;;;;5.40;1.67;;;14.30;99.90;;;;;;5053801;28;20051;-84
2021/03/29 04:22:37;;;;;;;6.55;1.80;;;14.30;99.90;;;;;;5037170;28;20032;-86
2021/03/29 04:25:08;;;;;;;13.00;2.13;;;14.30;99.90;;;;;;5053395;28;20074;-86
2021/03/29 04:27:34;;;;;;;11.00;2.20;;;14.30;99.90;;;;;;5053623;28;20118;-86
2021/03/29 04:30:00;;;;;;;18.23;2.10;;;14.30;99.90;;;;;;5070069;28;20115;-85
2021/03/29 04:32:26;;;;;;;7.80;1.42;;;14.30;99.90;;;;;;5053420;28;20145;-87
2021/03/29 04:34:52;;;;;;;11.13;2.17;;;14.30;99.90;;;;;;5053676;28;20021;-87
2021/03/29 04:37:18;;;;;;;8.60;1.75;;;14.30;99.90;;;;;;5088258;28;20155;-86
2021/03/29 04:39:43;;;;;;;8.65;1.90;;;14.30;99.90;;;;;;5088124;28;20036;-85
2021/03/29 04:42:09;;;;;;;7.57;1.83;;;14.30;99.90;;;;;;5070026;28;20039;-86
2021/03/29 04:44:35;;;;;;;14.38;2.00;;;14.30;99.90;;;;;;5089935;28;20039;-85
2021/03/29 04:47:01;;;;;;;8.75;1.88;;;14.30;99.90;;;;;;5073977;28;20038;-84
2021/03/29 04:49:26;;;;;;;7.50;1.73;;;14.40;99.90;;;;;;5056944;28;20039;-85
2021/03/29 04:51:52;;;;;;;8.05;1.85;;;14.40;99.90;;;;;;5073933;28;20426;-84
2021/03/29 04:54:19;;;;;;;10.50;2.95;;;14.30;99.90;;;;;;5056581;28;20381;-84
2021/03/29 04:56:45;;;;;;;5.40;1.70;;;14.30;99.90;;;;;;5056862;28;20052;-84
2021/03/29 04:59:11;;;;;;;10.10;1.25;;;14.30;99.90;;;;;;5073501;28;20028;-86
2021/03/29 05:01:36;;;;;;;4.30;1.55;;;14.30;99.90;;;;;;5040015;28;20026;-86
2021/03/29 05:04:03;;;;;;;8.85;2.55;;;14.30;99.90;;;;;;5056738;28;20074;-84
2021/03/29 05:06:32;;;;;;;9.02;2.75;;;14.30;99.90;;;;;;5073329;28;20027;-84
2021/03/29 05:08:57;;;;;;;7.67;2.10;;;14.30;99.90;;;;;;5056254;28;20542;-85
2021/03/29 05:11:24;;;;;;;7.25;1.92;;;14.30;99.90;;;;;;5056283;28;20377;-83
2021/03/29 05:13:50;;;;;;;11.38;2.40;;;14.30;99.90;;;;;;5073168;28;20028;-84
2021/03/29 05:16:16;;;;;;;12.20;2.38;;;14.30;99.90;;;;;;5040060;28;20032;-85
2021/03/29 05:18:41;;;;;;;13.57;1.98;;;14.30;99.90;;;;;;5073212;28;20106;-86
2021/03/29 05:21:07;;;;;;;6.80;1.83;;;14.30;99.90;;;;;;5073285;28;20085;-85
2021/03/29 05:23:32;;;;;;;11.02;2.05;;;14.30;99.90;;;;;;5056509;28;20100;-84
2021/03/29 05:25:58;;;;;;;11.57;2.17;;;14.30;99.90;;;;;;5056096;28;20038;-85
2021/03/29 05:28:24;;;;;;;6.65;1.27;;;14.30;99.90;;;;;;5039499;28;20043;-86
2021/03/29 05:30:50;;;;;;;9.82;2.13;;;14.30;99.90;;;;;;5039562;28;20028;-86
2021/03/29 05:33:16;;;;;;;8.27;1.85;;;14.30;99.90;;;;;;5039737;28;20064;-84
2021/03/29 05:35:41;;;;;;;11.00;1.98;;;14.30;99.90;;;;;;5072569;28;20027;-85
2021/03/29 05:38:07;;;;;;;10.77;2.38;;;14.40;99.90;;;;;;5072563;28;20024;-78
2021/03/29 05:40:33;;;;;;;10.32;2.58;;;14.30;99.90;;;;;;5039204;28;20387;-86
2021/03/29 05:42:59;;;;;;;7.47;1.77;;;14.30;99.90;;;;;;5056263;28;20036;-86
2021/03/29 05:45:30;;;;;;;11.45;1.92;;;14.30;99.90;;;;;;5072659;28;20107;-84
2021/03/29 05:47:55;;;;;;;9.27;2.00;;;14.30;99.90;;;;;;5090542;28;20028;-84
2021/03/29 05:50:21;;;;;;;12.85;2.08;;;14.30;99.90;;;;;;5055387;28;20398;-88
2021/03/29 05:52:47;;;;;;;9.43;2.45;;;14.40;99.90;;;;;;5055644;28;20035;-84
2021/03/29 05:55:17;;;;;;;12.57;2.47;;;14.30;99.90;;;;;;5071859;28;20027;-83
2021/03/29 06:00:33;;;;;;;11.23;3.38;;;14.30;99.90;;;;;;5090927;28;20502;-87
2021/03/29 06:03:39;;;;;;;9.40;3.22;;;14.30;99.90;;;;;;5071702;28;20043;-83
2021/03/29 06:06:13;;;;;;;11.02;2.20;;;14.30;99.90;;;;;;4971913;28;20130;-84
2021/03/29 06:09:06;;;;;;;9.23;2.47;;;14.40;99.90;;;;;;4988272;28;20124;-79
2021/03/29 06:11:37;;;;;;;15.90;2.60;;;14.30;99.90;;;;;;5025003;28;20404;-85
2021/03/29 06:14:13;;;;;;;9.50;2.13;;;14.40;99.90;;;;;;5090148;28;20427;-86
2021/03/29 06:16:51;;;;;;;9.70;2.05;;;14.30;99.90;;;;;;5072030;28;20495;-84
2021/03/29 06:19:47;;;;;;;11.98;2.65;;;14.30;99.90;;;;;;5072168;28;20036;-85
2021/03/29 06:22:21;;;;;;;8.77;1.60;;;14.30;99.90;;;;;;5089893;28;20106;-84
2021/03/29 06:25:10;;;;;;;11.65;1.95;;;14.30;99.90;;;;;;5071698;28;20089;-86
2021/03/29 06:27:46;;;;;;;6.55;1.65;;;14.30;99.90;;;;;;5058971;28;20032;-86
2021/03/29 06:30:30;;;;;;;11.68;2.80;;;14.30;99.90;;;;;;5071947;28;20431;-85
2021/03/29 06:32:58;;;;;;;8.35;1.80;;;14.30;99.90;;;;;;5072214;28;20433;-84
2021/03/29 06:35:26;;;;;;;5.95;1.20;;;14.30;99.90;;;;;;5090217;28;20081;-85
2021/03/29 06:37:52;;;;;;;6.15;1.67;;;14.40;99.90;;;;;;5090046;28;20016;-82
2021/03/29 06:40:18;;;;;;;5.53;1.73;;;14.40;99.90;;;;;;5071485;28;20028;-84
2021/03/29 06:42:44;;;;;;;10.20;1.58;;;14.40;99.90;;;;;;5071201;28;20267;-83
2021/03/29 06:45:16;;;;;;;5.18;1.83;;;14.40;99.90;;;;;;5071562;28;20502;-83
2021/03/29 06:47:42;;;;;;;9.10;1.27;;;14.40;99.90;;;;;;5054731;28;20024;-86
2021/03/29 06:50:25;;;;;;;7.65;1.48;;;14.40;99.90;;;;;;5089265;28;20044;-85
2021/03/29 06:52:51;;;;;;;9.00;1.80;;;14.40;99.90;;;;;;5071088;28;20040;-83
2021/03/29 06:55:28;;;;;;;10.00;1.92;;;14.40;99.90;;;;;;5054470;28;20028;-85
2021/03/29 06:58:04;;;;;;;7.07;1.40;;;14.40;99.90;;;;;;5070825;28;20070;-85
2021/03/29 07:00:39;;;;;;;3.88;1.15;;;14.40;99.90;;;;;;5071220;28;20032;-85
2021/03/29 07:03:07;;;;;;;11.32;1.65;;;14.40;99.90;;;;;;5089234;28;20386;-83
2021/03/29 07:05:34;;;;;;;9.23;1.98;;;14.50;99.90;;;;;;5071002;28;20477;-86
2021/03/29 07:08:02;;;;;;;7.63;1.42;;;14.40;99.90;;;;;;5071126;28;20032;-85
2021/03/29 07:10:29;;;;;;;5.10;1.27;;;14.40;99.90;;;;;;5054642;28;20032;-84
2021/03/29 07:12:56;;;;;;;5.28;1.20;;;14.40;99.90;;;;;;5089412;28;20101;-86
2021/03/29 07:15:22;;;;;;;5.70;0.85;;;14.50;99.90;;;;;;5071130;28;20182;-85
2021/03/29 07:17:49;;;;;;;6.93;1.50;;;14.50;99.90;;;;;;5054396;28;20024;-83
2021/03/29 07:20:22;;;;;;;4.72;1.10;;;14.50;99.90;;;;;;5037633;28;20557;-84
2021/03/29 07:22:48;;;;;;;6.38;0.85;;;14.50;99.90;;;;;;5071209;28;20114;-86
2021/03/29 07:25:15;;;;;;;4.18;1.02;;;14.50;99.90;;;;;;5070784;28;20119;-85
2021/03/29 07:28:00;;;;;;;3.75;0.73;;;14.50;99.90;;;;;;5070206;28;20060;-85
2021/03/29 07:30:48;;;;;;;4.72;1.30;;;14.50;99.90;;;;;;5053689;28;20032;-86
2021/03/29 07:33:19;;;;;;;3.20;0.90;;;14.50;99.90;;;;;;5088365;28;20020;-85
2021/03/29 07:35:48;;;;;;;3.55;0.80;;;14.60;99.90;;;;;;5053903;28;20055;-86
2021/03/29 07:38:15;;;;;;;6.78;0.90;;;14.60;99.90;;;;;;5088380;28;20023;-83
2021/03/29 07:40:46;;;;;;;6.93;1.02;;;14.60;99.90;;;;;;5088019;28;20106;-84
2021/03/29 07:43:18;;;;;;;5.65;1.52;;;14.60;99.90;;;;;;5070502;28;20482;-85
2021/03/29 07:45:53;;;;;;;5.30;0.93;;;14.70;99.90;;;;;;5088451;28;20027;-84
2021/03/29 07:48:42;;;;;;;4.15;0.90;;;14.70;99.90;;;;;;5070062;28;20483;-71
2021/03/29 07:51:16;;;;;;;3.85;1.10;;;14.70;99.90;;;;;;5053140;28;20516;-85
2021/03/29 07:53:45;;;;;;;7.60;1.23;;;14.70;99.90;;;;;;5053647;28;20028;-86
2021/03/29 07:56:12;;;;;;;2.85;0.80;;;14.70;99.90;;;;;;5069971;28;20129;-83
2021/03/29 07:58:46;;;;;;;3.28;0.98;;;14.80;99.90;;;;;;5088299;28;20091;-82
2021/03/29 08:01:14;;;;;;;1.70;0.70;;;14.80;99.90;;;;;;5088340;28;20034;-85
2021/03/29 08:03:51;;;;;;;2.22;0.52;;;14.90;99.90;;;;;;5069630;28;20047;-84
2021/03/29 08:06:36;;;;;;;2.08;0.60;;;15.00;99.90;;;;;;5069975;28;20039;-87
2021/03/29 08:09:03;;;;;;;3.17;0.80;;;15.00;99.90;;;;;;5070265;28;20485;-84
2021/03/29 08:11:56;;;;;;;4.45;0.90;;;15.10;99.90;;;;;;5071246;28;20466;-84
2021/03/29 08:14:54;;;;;;;6.55;2.40;;;15.10;99.90;;;;;;5071281;28;20012;-86
2021/03/29 08:17:47;;;;;;;6.45;0.80;;;15.10;99.90;;;;;;5051560;28;20032;-84
2021/03/29 08:20:32;;;;;;;3.88;1.10;;;15.10;99.90;;;;;;5073270;28;20035;-85
2021/03/29 08:23:35;;;;;;;3.38;0.85;;;15.20;99.90;;;;;;5074461;28;20482;-80
2021/03/29 08:26:21;;;;;;;7.38;1.15;;;15.20;99.90;;;;;;5092015;28;20051;-84
2021/03/29 08:29:06;;;;;;;3.97;0.80;;;15.30;99.90;;;;;;5092768;28;20447;-87
2021/03/29 08:31:58;;;;;;;6.45;1.33;;;15.40;99.90;;;;;;5092208;28;20028;-85
2021/03/29 08:34:24;;;;;;;2.85;0.85;;;15.50;99.90;;;;;;5073875;28;20446;-83
2021/03/29 08:36:51;;;;;;;5.10;0.88;;;15.50;99.90;;;;;;5074234;28;20449;-84
2021/03/29 08:39:16;;;;;;;3.63;1.10;;;15.60;99.90;;;;;;5058013;28;20025;-85
2021/03/29 08:41:43;;;;;;;2.00;0.77;;;15.70;99.90;;;;;;5057122;28;20510;-81
2021/03/29 08:44:10;;;;;;;5.97;1.30;;;15.70;99.90;;;;;;5057714;28;20039;-85
2021/03/29 08:46:37;;;;;;;5.28;1.42;;;15.70;99.90;;;;;;5073771;28;20024;-84
2021/03/29 08:49:08;;;;;;;2.28;0.70;;;15.70;99.90;;;;;;5074766;28;20051;-83
2021/03/29 08:51:35;;;;;;;3.00;0.70;;;15.70;99.90;;;;;;5092257;28;20071;-85
2021/03/29 08:54:11;;;;;;;4.15;1.42;;;15.70;99.90;;;;;;5041286;28;20118;-85
2021/03/29 08:56:42;;;;;;;4.90;1.00;;;15.70;99.90;;;;;;5074149;28;20035;-84
2021/03/29 08:59:09;;;;;;;5.07;1.88;;;15.70;99.90;;;;;;5074057;28;20042;-82
2021/03/29 09:01:35;;;;;;;3.45;1.02;;;15.80;99.90;;;;;;5073523;28;20031;-83
2021/03/29 09:04:02;;;;;;;4.32;1.00;;;15.90;99.90;;;;;;5056742;28;20498;-86
2021/03/29 09:06:31;;;;;;;4.00;1.20;;;15.90;99.90;;;;;;5057034;28;20074;-84
2021/03/29 09:08:57;;;;;;;4.13;0.85;;;16.10;99.90;;;;;;5073516;28;20028;-85
2021/03/29 09:11:23;;;;;;;3.10;0.95;;;16.30;99.90;;;;;;5091422;28;20526;-85
2021/03/29 09:13:54;;;;;;;3.47;1.20;;;16.30;99.90;;;;;;5075245;28;20119;-85
2021/03/29 09:16:25;;;;;;;7.25;1.10;;;16.30;99.90;;;;;;5072711;28;20352;-84
2021/03/29 09:18:51;;;;;;;2.33;1.02;;;16.30;99.90;;;;;;5073402;28;20033;-86
2021/03/29 09:21:24;;;;;;;3.83;1.23;;;16.40;99.90;;;;;;5056426;28;20522;-85
2021/03/29 09:23:50;;;;;;;4.82;1.85;;;16.40;99.90;;;;;;5056357;28;20205;-83
2021/03/29 09:26:26;;;;;;;6.93;1.42;;;16.50;99.90;;;;;;5055948;28;20442;-84
2021/03/29 09:28:55;;;;;;;5.25;1.38;;;16.60;99.70;;;;;;5073686;28;20039;-86
2021/03/29 09:31:24;;;;;;;4.85;1.50;;;16.60;99.70;;;;;;5071066;28;20115;-86
2021/03/29 09:33:51;;;;;;;9.60;2.08;;;16.90;99.60;;;;;;5072577;28;20502;-81
2021/03/29 09:36:20;;;;;;;18.02;2.85;;;17.10;99.30;;;;;;5072413;28;20105;-86
2021/03/29 09:38:54;;;;;;;19.05;3.25;;;17.30;99.00;;;;;;5091186;28;20077;-86
2021/03/29 09:41:20;;;;;;;12.15;2.17;;;17.50;98.90;;;;;;5072553;28;20028;-85
2021/03/29 09:43:53;;;;;;;7.88;1.42;;;17.70;98.40;;;;;;5090909;28;20556;-85
2021/03/29 09:46:29;;;;;;;26.83;3.63;;;17.90;98.00;;;;;;5090889;28;20028;-87
2021/03/29 09:49:05;;;;;;;11.25;2.85;;;18.00;97.30;;;;;;5073381;28;20029;-84
2021/03/29 09:51:32;;;;;;;7.50;1.85;;;18.00;97.00;;;;;;5072148;28;20426;-85
2021/03/29 09:53:57;;;;;;;7.40;2.47;;;18.00;96.90;;;;;;5055737;28;20032;-84
2021/03/29 09:56:31;;;;;;;10.68;3.38;;;17.90;96.60;;;;;;5039008;28;20030;-86
2021/03/29 09:58:57;;;;;;;9.43;1.75;;;17.90;96.70;;;;;;5071925;28;20020;-84
2021/03/29 10:01:27;;;;;;;8.60;2.58;;;17.80;96.50;;;;;;5071402;28;20050;-87
2021/03/29 10:03:54;;;;;;;11.35;1.98;;;17.70;96.30;;;;;;5073257;28;20032;-84
2021/03/29 10:06:22;;;;;;;9.20;2.28;;;17.60;96.50;;;;;;5071740;28;20068;-84
2021/03/29 10:08:59;;;;;;;7.95;2.63;;;17.60;96.70;;;;;;5070925;28;20020;-85
2021/03/29 10:11:26;;;;;;;14.35;2.92;;;17.60;96.90;;;;;;5054831;28;20081;-84
2021/03/29 10:14:04;;;;;;;15.85;3.78;;;17.60;96.80;;;;;;5055306;28;20111;-82
2021/03/29 10:16:30;;;;;;;11.45;2.22;;;17.60;96.80;;;;;;5054271;28;20032;-83
2021/03/29 10:19:07;;;;;;;11.02;2.60;;;17.60;96.90;;;;;;5089402;28;20044;-83
2021/03/29 10:21:34;;;;;;;16.25;2.75;;;17.60;96.80;;;;;;5090340;28;20030;-83
2021/03/29 10:24:13;;;;;;;15.43;2.83;;;17.60;96.80;;;;;;5054563;28;20039;-84
2021/03/29 10:26:39;;;;;;;9.10;2.58;;;17.60;96.70;;;;;;5071341;28;20036;-83
2021/03/29 10:29:07;;;;;;;8.80;2.90;;;17.70;96.70;;;;;;5071392;28;20040;-83
2021/03/29 10:31:34;;;;;;;13.30;2.80;;;17.70;96.70;;;;;;5088899;28;20099;-82
2021/03/29 10:34:01;;;;;;;13.63;3.03;;;17.70;96.50;;;;;;5070611;28;20032;-82
2021/03/29 10:36:28;;;;;;;11.93;2.10;;;17.70;96.70;;;;;;5070372;28;20375;-82
2021/03/29 10:38:55;;;;;;;12.65;2.28;;;17.90;96.40;;;;;;5088837;28;20024;-83
2021/03/29 10:41:22;;;;;;;10.25;2.17;;;17.80;96.00;;;;;;5070464;28;20500;-85
2021/03/29 10:43:49;;;;;;;16.95;2.40;;;17.70;96.20;;;;;;5069552;28;20040;-82
2021/03/29 10:46:14;;;;;;;8.05;2.13;;;17.60;96.30;;;;;;5054082;28;20390;-82
2021/03/29 10:48:40;;;;;;;10.10;2.22;;;17.60;96.30;;;;;;5054412;28;20123;-81
2021/03/29 10:51:07;;;;;;;6.50;2.20;;;17.50;96.20;;;;;;5070117;28;20071;-84
2021/03/29 10:53:34;;;;;;;10.90;2.33;;;17.40;96.30;;;;;;5054270;28;20019;-81
2021/03/29 10:56:00;;;;;;;7.97;2.28;;;17.30;96.40;;;;;;5053815;28;20545;-82
2021/03/29 10:58:26;;;;;;;16.85;2.38;;;17.20;96.50;;;;;;5037177;28;20039;-82
2021/03/29 11:00:51;;;;;;;13.98;3.15;;;17.10;96.70;;;;;;5088631;28;20028;-84
2021/03/29 11:03:17;;;;;;;5.88;2.22;;;17.10;96.90;;;;;;5070251;28;20103;-85
2021/03/29 11:05:43;;;;;;;9.13;1.50;;;17.10;97.00;;;;;;5069636;28;20102;-81
2021/03/29 11:08:09;;;;;;;7.25;1.92;;;17.10;97.00;;;;;;5054537;28;20135;-81
2021/03/29 11:10:35;;;;;;;4.70;1.70;;;17.10;96.80;;;;;;5070870;28;20040;-79
2021/03/29 11:13:02;;;;;;;7.97;1.90;;;17.10;96.80;;;;;;5070424;28;20024;-80
2021/03/29 11:15:30;;;;;;;10.63;2.03;;;17.10;96.90;;;;;;5069808;28;20413;-82
2021/03/29 11:17:55;;;;;;;9.45;2.25;;;17.00;96.80;;;;;;5087591;28;20356;-84
2021/03/29 11:20:21;;;;;;;8.90;2.58;;;17.00;97.00;;;;;;5069430;28;20064;-83
2021/03/29 11:22:47;;;;;;;7.65;1.92;;;17.00;97.00;;;;;;5087507;28;20098;-83
2021/03/29 11:25:14;;;;;;;12.18;2.58;;;17.00;97.00;;;;;;5036710;28;20032;-79
2021/03/29 11:27:40;;;;;;;10.45;1.90;;;17.00;97.00;;;;;;5037013;28;20036;-83
2021/03/29 11:30:09;;;;;;;8.32;2.17;;;17.00;97.00;;;;;;5070662;28;20027;-83
2021/03/29 11:32:36;;;;;;;5.75;1.33;;;17.00;96.90;;;;;;5053414;28;20036;-82
2021/03/29 11:35:03;;;;;;;7.50;2.30;;;17.00;96.80;;;;;;5069625;28;20028;-85
2021/03/29 11:37:29;;;;;;;12.45;2.88;;;16.90;96.80;;;;;;5087739;28;20100;-84
2021/03/29 11:39:55;;;;;;;15.50;3.53;;;16.90;96.90;;;;;;5069621;28;20040;-81
2021/03/29 11:42:21;;;;;;;14.77;2.60;;;16.90;96.80;;;;;;5052802;28;20505;-80
2021/03/29 11:44:46;;;;;;;5.95;2.05;;;16.90;96.90;;;;;;5069565;28;20532;-83
2021/03/29 11:47:12;;;;;;;7.57;1.88;;;16.90;96.90;;;;;;5035865;28;20038;-82
2021/03/29 11:49:38;;;;;;;5.68;2.25;;;17.00;96.90;;;;;;5035183;28;20354;-82
2021/03/29 11:52:04;;;;;;;8.55;2.50;;;17.10;96.90;;;;;;5052224;28;20032;-80
2021/03/29 11:54:31;;;;;;;9.82;2.95;;;17.30;96.90;;;;;;5035178;28;20048;-84
2021/03/29 11:56:57;;;;;;;9.50;2.55;;;17.40;96.70;;;;;;5052479;28;20122;-82
2021/03/29 11:59:24;;;;;;;10.57;3.78;;;17.60;96.40;;;;;;5069978;28;20035;-81
2021/03/29 12:01:55;;;;;;;10.73;1.75;;;17.80;96.20;;;;;;5052531;28;20051;-80
2021/03/29 12:04:43;;;;;;;8.68;2.40;;;18.00;95.80;;;;;;5052780;28;20044;-81
2021/03/29 12:12:41;;;;;;;11.20;2.42;;;18.10;94.70;;;;;;5072736;28;20039;-81
2021/03/29 12:15:13;;;;;;;10.75;2.20;;;18.00;94.70;;;;;;5087655;28;20040;-83
2021/03/29 12:17:42;;;;;;;13.63;3.85;;;17.90;94.80;;;;;;5052440;28;20115;-82
2021/03/29 12:20:09;;;;;;;12.40;4.38;;;17.90;94.90;;;;;;5069295;28;20024;-80
2021/03/29 12:22:36;;;;;;;9.88;3.53;;;17.90;95.00;;;;;;5036153;28;20047;-85
2021/03/29 12:25:02;;;;;;;11.02;2.67;;;17.90;94.90;;;;;;5087866;28;20382;-81
2021/03/29 12:27:29;;;;;;;8.38;2.47;;;17.90;94.90;;;;;;5087616;28;20035;-84
2021/03/29 12:29:56;;;;;;;6.55;2.05;;;17.90;94.90;;;;;;5036561;28;20059;-84
2021/03/29 12:32:23;;;;;;;6.88;3.10;;;17.80;95.00;;;;;;5088481;28;20032;-84
2021/03/29 12:34:54;;;;;;;12.60;3.72;;;17.90;95.00;;;;;;5088478;28;20066;-86
2021/03/29 12:37:22;;;;;;;18.92;5.30;;;17.80;94.80;;;;;;5053641;28;20360;-86
2021/03/29 12:40:32;;;;;;;9.20;2.33;;;17.80;94.80;;;;;;5070747;28;20381;-82
2021/03/29 12:45:24;;;;;;;8.65;2.88;;;17.80;94.80;;;;;;5071747;28;20418;-84
2021/03/29 12:47:52;;;;;;;9.57;2.60;;;17.70;94.80;;;;;;5087597;28;20099;-86
2021/03/29 12:50:19;;;;;;;11.75;3.50;;;17.70;94.80;;;;;;5068905;28;20055;-84
2021/03/29 12:52:47;;;;;;;17.80;4.70;;;17.70;94.80;;;;;;5069344;28;20083;-86
2021/03/29 12:55:16;;;;;;;14.95;3.05;;;17.70;94.90;;;;;;5087041;28;20020;-84
2021/03/29 12:57:43;;;;;;;14.60;2.45;;;17.70;94.90;;;;;;5069201;28;20082;-85
2021/03/29 13:00:12;;;;;;;8.40;2.20;;;17.80;94.90;;;;;;5069065;28;20076;-84
2021/03/29 13:02:39;;;;;;;8.73;2.87;;;17.80;94.80;;;;;;5087386;28;20032;-84
2021/03/29 13:05:10;;;;;;;6.82;1.85;;;17.90;94.70;;;;;;5053127;28;20028;-84